Time;durP1;ratioP1;P1;durP2;ratioP2;P2;SDS_P1;SDS_P2;PMS_P1;PMS_P2;Temp;Humidity;BMP_temperature;BMP_pressure;BME280_temperature;BME280_humidity;BME280_pressure;Samples;Min_cycle;Max_cycle;Signal;HPM_P1;HPM_P2
2023/06/21 00:00:35;;;;;;;10.50;9.70;;;;;;;18.00;100.00;99869.65;105322;1255;72700;-49
2023/06/21 00:03:06;;;;;;;12.50;11.60;;;;;;;17.99;100.00;99872.46;105545;1257;60640;-47
2023/06/21 00:05:33;;;;;;;15.10;12.70;;;;;;;17.98;100.00;99869.43;105267;1256;60467;-47
2023/06/21 00:08:00;;;;;;;13.50;12.40;;;;;;;17.98;100.00;99871.98;105332;1259;73770;-50
2023/06/21 00:10:29;;;;;;;12.60;11.80;;;;;;;17.97;100.00;99873.66;105277;1261;67948;-48
2023/06/21 00:12:57;;;;;;;13.80;12.80;;;;;;;17.97;100.00;99874.08;105189;1264;71434;-47
2023/06/21 00:15:25;;;;;;;14.10;13.00;;;;;;;17.96;100.00;99879.25;105325;1255;61699;-49
2023/06/21 00:17:52;;;;;;;17.30;12.70;;;;;;;17.94;100.00;99880.86;105313;1254;60531;-49
2023/06/21 00:20:19;;;;;;;12.90;11.80;;;;;;;17.91;100.00;99883.95;105301;1259;72827;-48
2023/06/21 00:22:47;;;;;;;13.90;12.70;;;;;;;17.90;100.00;99886.61;105398;1260;67597;-49
2023/06/21 00:25:17;;;;;;;14.50;13.40;;;;;;;17.89;100.00;99883.92;105688;1260;72671;-49
2023/06/21 00:27:45;;;;;;;13.10;12.10;;;;;;;17.89;100.00;99884.08;105299;1259;61711;-48
2023/06/21 00:30:12;;;;;;;12.70;11.60;;;;;;;17.89;100.00;99887.35;105461;1255;60538;-48
2023/06/21 00:32:39;;;;;;;14.80;13.60;;;;;;;17.90;100.00;99884.58;105316;1259;73793;-48
2023/06/21 00:35:07;;;;;;;14.30;12.80;;;;;;;17.91;100.00;99886.54;105410;1254;67830;-48
2023/06/21 00:37:37;;;;;;;13.70;12.50;;;;;;;17.91;100.00;99885.80;105339;1263;71445;-48
2023/06/21 00:40:11;;;;;;;13.90;12.90;;;;;;;17.92;100.00;99891.50;105766;1261;61637;-49
2023/06/21 00:42:39;;;;;;;15.80;14.10;;;;;;;17.94;100.00;99882.65;105639;1256;62129;-48
2023/06/21 00:45:07;;;;;;;14.80;13.70;;;;;;;17.95;100.00;99889.31;105277;1260;73840;-49
2023/06/21 00:47:34;;;;;;;15.90;14.40;;;;;;;17.96;100.00;99890.30;105134;1262;67704;-48
2023/06/21 00:50:02;;;;;;;14.10;13.00;;;;;;;17.97;100.00;99894.91;105772;1260;71777;-49
2023/06/21 00:52:29;;;;;;;15.70;14.40;;;;;;;17.97;100.00;99888.20;105288;1258;60540;-48
2023/06/21 00:54:58;;;;;;;15.80;14.20;;;;;;;17.97;100.00;99890.95;107455;1259;60304;-49
2023/06/21 00:57:25;;;;;;;14.40;13.20;;;;;;;17.97;100.00;99894.16;105298;1259;72622;-50
2023/06/21 00:59:53;;;;;;;14.30;13.00;;;;;;;17.95;100.00;99896.40;105215;1262;67546;-48
2023/06/21 01:02:20;;;;;;;15.10;13.80;;;;;;;17.91;100.00;99898.30;105183;1254;73027;-47
2023/06/21 01:04:49;;;;;;;16.40;15.00;;;;;;;17.88;100.00;99901.44;106048;1257;60569;-49
2023/06/21 01:07:29;;;;;;;15.80;14.20;;;;;;;17.87;100.00;99896.61;105395;1258;60348;-49
2023/06/21 01:10:46;;;;;;;16.80;15.00;;;;;;;17.86;100.00;99892.31;105333;1264;73752;-48
2023/06/21 01:13:26;;;;;;;16.00;14.70;;;;;;;17.85;100.00;99891.87;105209;1254;68600;-50
2023/06/21 01:15:58;;;;;;;15.60;14.40;;;;;;;17.85;100.00;99893.36;106095;1259;73219;-49
2023/06/21 01:18:26;;;;;;;17.00;15.70;;;;;;;17.83;100.00;99888.91;105425;1254;60761;-49
2023/06/21 01:20:57;;;;;;;16.80;15.40;;;;;;;17.83;100.00;99890.74;105285;1253;60547;-49
2023/06/21 01:23:42;;;;;;;18.10;16.30;;;;;;;17.83;100.00;99892.89;105971;1265;74399;-49
2023/06/21 01:26:28;;;;;;;17.90;16.30;;;;;;;17.82;100.00;99896.80;105412;1261;68047;-50
2023/06/21 01:29:11;;;;;;;16.10;14.50;;;;;;;17.81;100.00;99901.59;105540;1254;72683;-50
2023/06/21 01:31:40;;;;;;;17.40;15.90;;;;;;;17.82;100.00;99902.11;105944;1257;61678;-49
2023/06/21 01:34:08;;;;;;;15.40;14.10;;;;;;;17.82;100.00;99902.44;105391;1254;60330;-49
2023/06/21 01:36:39;;;;;;;15.10;14.00;;;;;;;17.83;100.00;99908.91;108981;1253;73839;-50
2023/06/21 01:39:09;;;;;;;14.50;13.60;;;;;;;17.82;100.00;99910.41;108903;1254;67683;-51
2023/06/21 01:41:37;;;;;;;15.40;14.00;;;;;;;17.81;100.00;99912.88;109039;1254;73928;-50
2023/06/21 01:44:05;;;;;;;16.20;14.60;;;;;;;17.81;100.00;99915.25;108264;1256;62551;-48
2023/06/21 01:46:32;;;;;;;15.20;13.90;;;;;;;17.82;100.00;99911.20;108908;1254;59809;-51
2023/06/21 01:49:02;;;;;;;15.10;13.90;;;;;;;17.81;100.00;99907.20;108890;1254;72139;-49
2023/06/21 01:51:29;;;;;;;16.20;14.80;;;;;;;17.83;100.00;99913.46;108882;1254;66726;-52
2023/06/21 01:53:56;;;;;;;17.30;15.80;;;;;;;17.84;100.00;99911.77;108980;1254;70667;-51
2023/06/21 01:56:24;;;;;;;15.60;14.00;;;;;;;17.85;100.00;99912.73;108887;1257;60454;-49
2023/06/21 01:58:51;;;;;;;16.50;15.20;;;;;;;17.86;100.00;99915.21;108789;1257;58740;-49
2023/06/21 02:01:18;;;;;;;17.00;15.10;;;;;;;17.85;100.00;99923.27;108902;1253;74723;-48
2023/06/21 02:03:56;;;;;;;15.30;14.10;;;;;;;17.84;100.00;99932.95;108875;1257;67552;-49
2023/06/21 02:06:29;;;;;;;16.10;14.80;;;;;;;17.81;100.00;99937.18;108981;1254;74321;-49
2023/06/21 02:08:59;;;;;;;17.90;16.10;;;;;;;17.76;100.00;99940.05;108869;1254;61992;-49
2023/06/21 02:11:27;;;;;;;18.20;16.50;;;;;;;17.74;100.00;99945.69;108863;1254;61506;-49
2023/06/21 02:13:58;;;;;;;18.80;17.30;;;;;;;17.73;100.00;99952.48;108859;1252;71578;-49
2023/06/21 02:16:26;;;;;;;17.40;16.10;;;;;;;17.71;100.00;99958.41;108806;1254;67555;-49
2023/06/21 02:18:58;;;;;;;20.10;17.90;;;;;;;17.71;100.00;99960.63;108876;1253;72763;-48
2023/06/21 02:21:25;;;;;;;16.30;14.90;;;;;;;17.71;100.00;99964.03;109055;1254;61095;-49
2023/06/21 02:23:52;;;;;;;18.80;17.30;;;;;;;17.73;100.00;99971.39;108898;1253;60035;-49
2023/06/21 02:26:19;;;;;;;18.70;16.90;;;;;;;17.74;100.00;99978.19;108474;1257;74429;-48
2023/06/21 02:28:47;;;;;;;17.90;16.60;;;;;;;17.74;100.00;99980.91;105342;1261;67711;-50
2023/06/21 02:31:14;;;;;;;17.70;16.30;;;;;;;17.74;100.00;99987.27;105361;1257;71686;-50
2023/06/21 02:33:42;;;;;;;18.60;17.10;;;;;;;17.73;100.00;99991.31;105225;1256;60607;-50
2023/06/21 02:36:10;;;;;;;18.70;17.00;;;;;;;17.71;100.00;99990.02;105569;1254;60633;-51
2023/06/21 02:38:38;;;;;;;18.70;17.10;;;;;;;17.69;100.00;99989.60;105343;1256;73856;-51
2023/06/21 02:41:05;;;;;;;17.80;16.30;;;;;;;17.68;100.00;100000.05;105331;1258;66724;-50
2023/06/21 02:43:33;;;;;;;19.30;17.70;;;;;;;17.68;100.00;100005.13;105388;1259;71796;-50
2023/06/21 02:46:03;;;;;;;20.20;18.20;;;;;;;17.68;100.00;100007.14;105529;1254;61757;-50
2023/06/21 02:48:30;;;;;;;18.90;17.30;;;;;;;17.68;100.00;100007.88;105372;1258;59529;-51
2023/06/21 02:50:57;;;;;;;19.80;18.10;;;;;;;17.68;100.00;100008.39;105250;1254;74854;-51
2023/06/21 02:53:26;;;;;;;18.30;16.70;;;;;;;17.69;100.00;100010.09;105262;1259;66845;-50
2023/06/21 02:55:54;;;;;;;17.90;16.20;;;;;;;17.70;100.00;100012.59;105380;1259;72731;-49
2023/06/21 02:58:21;;;;;;;18.10;16.20;;;;;;;17.71;100.00;100011.58;105362;1254;61686;-49
2023/06/21 03:00:48;;;;;;;17.80;16.30;;;;;;;17.74;100.00;100015.77;105322;1254;60829;-48
2023/06/21 03:03:16;;;;;;;16.50;15.30;;;;;;;17.75;100.00;100015.27;105305;1254;74263;-49
2023/06/21 03:05:43;;;;;;;17.10;15.70;;;;;;;17.78;100.00;100013.42;105349;1258;67728;-49
2023/06/21 03:08:11;;;;;;;17.70;16.30;;;;;;;17.80;100.00;100013.86;105314;1259;72836;-48
2023/06/21 03:10:39;;;;;;;17.80;16.30;;;;;;;17.82;100.00;100018.45;105365;1254;60700;-49
2023/06/21 03:13:06;;;;;;;17.00;15.60;;;;;;;17.83;100.00;100025.60;105894;1258;60454;-48
2023/06/21 03:15:34;;;;;;;18.70;16.90;;;;;;;17.85;100.00;100034.91;105339;1261;73823;-49
2023/06/21 03:18:01;;;;;;;18.60;17.00;;;;;;;17.87;100.00;100037.15;105333;1254;67973;-49
2023/06/21 03:20:28;;;;;;;18.60;17.00;;;;;;;17.89;100.00;100042.59;105320;1254;71412;-48
2023/06/21 03:22:58;;;;;;;20.10;18.30;;;;;;;17.90;100.00;100039.95;106770;1254;61622;-49
2023/06/21 03:25:27;;;;;;;21.00;19.10;;;;;;;17.92;100.00;100047.12;105414;1254;60453;-49
2023/06/21 03:27:54;;;;;;;18.20;16.70;;;;;;;17.93;100.00;100054.30;105623;1254;72642;-49
2023/06/21 03:30:22;;;;;;;19.10;17.50;;;;;;;17.94;100.00;100058.90;105416;1253;66211;-49
2023/06/21 03:32:50;;;;;;;19.40;17.90;;;;;;;17.97;100.00;100073.95;105670;1257;71385;-49
2023/06/21 03:35:18;;;;;;;19.50;17.90;;;;;;;17.98;100.00;100100.73;105734;1258;61743;-49
2023/06/21 03:37:47;;;;;;;20.70;18.70;;;;;;;18.01;100.00;100112.16;105409;1253;60553;-50
2023/06/21 03:40:18;;;;;;;18.80;17.30;;;;;;;18.05;100.00;100113.48;105442;1260;73802;-49
2023/06/21 03:42:45;;;;;;;20.20;18.50;;;;;;;18.09;100.00;100113.02;105474;1260;65736;-50
2023/06/21 03:45:13;;;;;;;21.00;18.80;;;;;;;18.13;100.00;100116.65;105432;1258;72749;-50
2023/06/21 03:47:43;;;;;;;19.70;18.10;;;;;;;18.18;100.00;100124.35;105429;1260;60488;-50
2023/06/21 03:50:11;;;;;;;21.40;19.50;;;;;;;18.23;100.00;100125.43;105336;1254;60390;-50
2023/06/21 03:52:40;;;;;;;21.50;19.50;;;;;;;18.28;100.00;100132.54;105387;1254;73934;-49
2023/06/21 03:55:08;;;;;;;20.80;19.10;;;;;;;18.32;100.00;100132.92;105172;1254;65721;-50
2023/06/21 03:57:36;;;;;;;21.30;19.40;;;;;;;18.35;100.00;100136.30;105631;1254;72473;-49
2023/06/21 04:00:06;;;;;;;21.60;19.80;;;;;;;18.38;100.00;100142.27;106496;1253;60985;-50
2023/06/21 04:02:41;;;;;;;22.60;20.70;;;;;;;18.40;100.00;100146.09;105392;1260;60495;-49
2023/06/21 04:05:12;;;;;;;20.60;18.80;;;;;;;18.41;100.00;100149.50;105324;1259;73867;-49
2023/06/21 04:07:39;;;;;;;22.80;20.70;;;;;;;18.42;100.00;100155.77;105302;1253;67523;-49
2023/06/21 04:10:11;;;;;;;21.70;19.70;;;;;;;18.43;100.00;100159.88;105090;1254;73174;-50
2023/06/21 04:12:39;;;;;;;21.50;19.60;;;;;;;18.44;100.00;100162.17;105329;1256;60562;-50
2023/06/21 04:15:07;;;;;;;22.40;20.50;;;;;;;18.47;100.00;100169.58;105561;1259;60421;-49
2023/06/21 04:17:37;;;;;;;21.70;19.70;;;;;;;18.52;100.00;100176.86;105529;1254;73846;-50
2023/06/21 04:20:13;;;;;;;21.90;20.00;;;;;;;18.55;100.00;100178.05;105242;1260;65504;-51
2023/06/21 04:22:41;;;;;;;21.30;19.40;;;;;;;18.58;100.00;100177.56;105355;1257;73446;-50
2023/06/21 04:25:09;;;;;;;22.70;20.80;;;;;;;18.60;100.00;100184.84;105759;1254;61708;-49
2023/06/21 04:27:39;;;;;;;21.60;19.70;;;;;;;18.63;100.00;100186.19;106099;1260;60367;-49
2023/06/21 04:30:12;;;;;;;24.00;21.80;;;;;;;18.66;100.00;100191.83;105340;1257;73830;-50
2023/06/21 04:32:46;;;;;;;23.70;21.60;;;;;;;18.69;100.00;100200.71;105357;1254;66540;-49
2023/06/21 04:35:15;;;;;;;24.20;21.90;;;;;;;18.68;100.00;100206.56;106326;1253;71715;-49
2023/06/21 04:37:46;;;;;;;25.70;23.20;;;;;;;18.67;100.00;100213.00;106082;1256;61690;-50
2023/06/21 04:40:16;;;;;;;25.20;22.70;;;;;;;18.69;100.00;100228.16;105331;1255;60605;-50
2023/06/21 04:42:44;;;;;;;25.20;22.90;;;;;;;18.70;100.00;100231.54;109087;1253;73846;-51
2023/06/21 04:45:16;;;;;;;23.80;21.80;;;;;;;18.70;100.00;100235.54;109059;1253;67893;-51
2023/06/21 04:47:46;;;;;;;23.40;21.40;;;;;;;18.72;100.00;100232.11;109071;1253;72641;-51
2023/06/21 04:50:16;;;;;;;24.20;22.20;;;;;;;18.76;100.00;100231.98;109048;1256;61922;-51
2023/06/21 04:52:49;;;;;;;25.20;23.00;;;;;;;18.81;100.00;100229.27;109017;1258;59993;-52
2023/06/21 04:55:18;;;;;;;23.90;21.60;;;;;;;18.85;100.00;100233.29;108975;1258;72577;-51
2023/06/21 04:57:46;;;;;;;24.20;22.00;;;;;;;18.89;100.00;100234.98;109078;1253;67352;-51
2023/06/21 05:00:14;;;;;;;26.50;23.70;;;;;;;18.95;100.00;100238.41;109044;1253;72437;-51
2023/06/21 05:02:41;;;;;;;24.70;22.70;;;;;;;19.00;100.00;100243.80;108818;1257;61627;-52
2023/06/21 05:05:09;;;;;;;27.30;24.50;;;;;;;19.05;100.00;100238.14;109043;1253;60015;-51
2023/06/21 05:07:37;;;;;;;25.60;23.20;;;;;;;19.09;100.00;100236.17;109042;1253;72011;-50
2023/06/21 05:10:08;;;;;;;24.70;22.50;;;;;;;19.13;100.00;100236.60;108974;1252;65490;-52
2023/06/21 05:12:36;;;;;;;25.10;22.90;;;;;;;19.19;100.00;100240.51;108992;1253;71376;-52
2023/06/21 05:15:05;;;;;;;26.30;23.90;;;;;;;19.25;100.00;100242.08;108970;1253;61394;-52
2023/06/21 05:17:34;;;;;;;25.50;23.10;;;;;;;19.32;100.00;100245.02;108959;1252;58761;-52
2023/06/21 05:20:03;;;;;;;26.60;24.20;;;;;;;19.39;100.00;100249.00;108755;1254;72910;-51
2023/06/21 05:22:31;;;;;;;26.00;23.80;;;;;;;19.47;100.00;100260.59;109015;1254;67695;-52
2023/06/21 05:25:01;;;;;;;27.20;24.40;;;;;;;19.56;100.00;100264.84;109102;1253;72676;-51
2023/06/21 05:27:29;;;;;;;27.50;25.00;;;;;;;19.64;100.00;100264.59;109061;1253;60405;-51
2023/06/21 05:29:56;;;;;;;28.40;25.70;;;;;;;19.72;100.00;100269.93;109036;1253;60033;-50
2023/06/21 05:32:25;;;;;;;27.90;25.50;;;;;;;19.78;100.00;100271.66;106127;1253;71673;-51
2023/06/21 05:34:53;;;;;;;28.60;26.10;;;;;;;19.80;100.00;100280.44;105465;1253;67066;-50
2023/06/21 05:37:22;;;;;;;27.60;25.00;;;;;;;19.81;100.00;100280.13;106946;1254;72095;-49
2023/06/21 05:39:49;;;;;;;27.30;24.90;;;;;;;19.87;100.00;100284.60;105235;1255;60557;-48
2023/06/21 05:42:16;;;;;;;27.80;25.20;;;;;;;19.90;100.00;100288.21;104942;1254;60617;-49
2023/06/21 05:44:44;;;;;;;26.60;24.20;;;;;;;19.95;100.00;100287.08;105983;1255;73648;-51
2023/06/21 05:47:12;;;;;;;25.70;23.30;;;;;;;20.00;100.00;100293.21;105392;1256;66969;-51
2023/06/21 05:49:39;;;;;;;27.60;25.40;;;;;;;20.06;100.00;100294.05;105367;1259;73343;-51
2023/06/21 05:52:07;;;;;;;26.70;24.40;;;;;;;20.12;100.00;100295.39;105268;1259;60566;-51
2023/06/21 05:54:34;;;;;;;26.80;24.30;;;;;;;20.15;100.00;100295.10;105342;1253;60611;-48
2023/06/21 05:57:04;;;;;;;26.80;24.50;;;;;;;20.19;100.00;100296.64;105059;1253;73975;-51
2023/06/21 05:59:31;;;;;;;28.50;25.90;;;;;;;20.23;100.00;100299.96;106229;1253;66785;-50
2023/06/21 06:01:58;;;;;;;27.70;25.20;;;;;;;20.29;100.00;100304.23;105393;1256;70865;-50
2023/06/21 06:04:26;;;;;;;27.50;25.10;;;;;;;20.34;100.00;100310.35;105140;1260;61096;-49
2023/06/21 06:06:53;;;;;;;28.90;26.30;;;;;;;20.39;100.00;100312.52;105026;1252;60324;-50
2023/06/21 06:09:20;;;;;;;27.70;25.20;;;;;;;20.42;100.00;100309.63;105154;1254;71712;-50
2023/06/21 06:11:47;;;;;;;27.20;24.80;;;;;;;20.44;100.00;100311.46;104917;1254;68267;-50
2023/06/21 06:14:15;;;;;;;27.10;24.70;;;;;;;20.46;100.00;100310.55;105148;1254;72547;-51
2023/06/21 06:16:42;;;;;;;27.30;25.00;;;;;;;20.48;100.00;100309.84;105049;1254;60493;-50
2023/06/21 06:19:09;;;;;;;28.00;25.70;;;;;;;20.51;100.00;100308.52;105007;1253;60432;-48
2023/06/21 06:21:37;;;;;;;28.40;25.90;;;;;;;20.55;100.00;100310.20;105027;1253;73840;-49
2023/06/21 06:24:04;;;;;;;37.00;25.60;;;;;;;20.60;100.00;100314.70;104926;1255;66828;-49
2023/06/21 06:26:32;;;;;;;30.80;27.90;;;;;;;20.65;100.00;100315.54;105157;1256;72685;-50
2023/06/21 06:28:59;;;;;;;26.50;24.40;;;;;;;20.71;100.00;100316.13;104856;1253;61774;-47
2023/06/21 06:31:28;;;;;;;26.10;23.70;;;;;;;20.75;100.00;100311.05;105144;1254;60512;-49
2023/06/21 06:33:56;;;;;;;25.90;23.50;;;;;;;20.83;100.00;100312.48;105182;1257;73856;-51
2023/06/21 06:36:23;;;;;;;28.50;25.90;;;;;;;20.91;100.00;100307.56;104881;1253;67361;-49
2023/06/21 06:38:51;;;;;;;28.50;25.70;;;;;;;20.94;100.00;100301.30;104696;1258;72184;-51
2023/06/21 06:41:19;;;;;;;26.90;24.70;;;;;;;20.96;100.00;100302.02;105362;1253;62402;-51
2023/06/21 06:43:47;;;;;;;26.00;23.60;;;;;;;21.01;100.00;100297.56;106545;1253;60368;-50
2023/06/21 06:46:14;;;;;;;27.50;25.10;;;;;;;21.07;100.00;100297.43;105373;1258;74331;-52
2023/06/21 06:48:41;;;;;;;24.90;22.80;;;;;;;21.13;100.00;100298.64;105328;1259;65859;-53
2023/06/21 06:51:09;;;;;;;25.80;23.50;;;;;;;21.21;100.00;100295.47;105361;1254;70867;-51
2023/06/21 06:53:36;;;;;;;23.20;21.40;;;;;;;21.32;100.00;100290.31;104926;1254;61689;-51
2023/06/21 06:56:03;;;;;;;22.20;20.30;;;;;;;21.44;100.00;100285.05;104838;1258;60523;-52
2023/06/21 06:58:35;;;;;;;22.30;20.50;;;;;;;21.57;100.00;100286.69;105289;1256;72053;-52
2023/06/21 07:01:05;;;;;;;22.10;20.30;;;;;;;21.69;100.00;100275.62;105301;1258;67236;-52
2023/06/21 07:03:33;;;;;;;20.30;18.50;;;;;;;21.78;100.00;100277.16;105325;1258;74792;-52
2023/06/21 07:09:02;;;;;;;20.80;18.70;;;;;;;22.00;100.00;100260.91;102179;1292;601682;-50
2023/06/21 07:11:30;;;;;;;22.40;20.40;;;;;;;22.06;100.00;100268.39;104747;1272;61634;-50
2023/06/21 07:13:57;;;;;;;22.90;20.50;;;;;;;22.13;100.00;100265.23;104733;1268;59233;-50
2023/06/21 07:16:24;;;;;;;23.80;21.90;;;;;;;22.20;100.00;100259.85;104718;1264;71008;-49
2023/06/21 07:18:52;;;;;;;19.50;18.00;;;;;;;22.25;100.00;100254.45;104655;1269;67066;-51
2023/06/21 07:21:19;;;;;;;19.80;17.90;;;;;;;22.31;100.00;100255.75;104652;1263;72581;-53
2023/06/21 07:23:50;;;;;;;17.40;15.90;;;;;;;22.37;100.00;100250.02;104625;1264;144986;-51
2023/06/21 07:26:17;;;;;;;18.10;16.70;;;;;;;22.42;100.00;100247.66;104946;1264;59399;-51
2023/06/21 07:28:44;;;;;;;16.60;15.30;;;;;;;22.45;100.00;100242.11;104636;1265;71930;-52
2023/06/21 07:31:12;;;;;;;14.50;13.40;;;;;;;22.48;100.00;100238.65;104770;1265;66134;-51
2023/06/21 07:33:40;;;;;;;15.00;13.80;;;;;;;22.52;100.00;100238.98;104556;1267;75170;-52
2023/06/21 07:36:07;;;;;;;16.40;15.20;;;;;;;22.59;100.00;100240.60;104825;1263;60944;-52
2023/06/21 07:38:34;;;;;;;18.00;16.10;;;;;;;22.62;100.00;100238.42;104865;1260;60026;-51
2023/06/21 07:41:01;;;;;;;18.70;16.90;;;;;;;22.67;100.00;100236.21;104812;1261;73121;-50
2023/06/21 07:43:29;;;;;;;13.70;12.80;;;;;;;22.71;100.00;100232.76;104793;1263;67849;-50
2023/06/21 07:45:56;;;;;;;11.40;10.70;;;;;;;22.73;100.00;100229.98;104872;1264;73710;-50
2023/06/21 07:48:40;;;;;;;;;;;;;;;22.74;100.00;100225.85;108577;1260;60574;-52
2023/06/21 07:51:08;;;;;;;11.00;10.10;;;;;;;22.77;100.00;100227.13;108416;1264;58246;-52
2023/06/21 07:53:36;;;;;;;10.70;10.00;;;;;;;22.79;100.00;100225.47;108572;1260;71270;-52
2023/06/21 07:56:03;;;;;;;12.80;11.80;;;;;;;22.84;100.00;100222.60;108594;1263;66829;-52
2023/06/21 07:58:31;;;;;;;17.60;11.60;;;;;;;22.91;100.00;100215.16;108411;1260;72158;-52
2023/06/21 08:00:58;;;;;;;12.60;11.50;;;;;;;23.01;100.00;100206.52;108616;1260;59998;-51
2023/06/21 08:03:25;;;;;;;11.70;11.00;;;;;;;23.09;100.00;100204.92;108611;1264;60029;-52
2023/06/21 08:05:52;;;;;;;13.10;12.10;;;;;;;23.08;100.00;100197.64;108655;1260;73018;-52
2023/06/21 08:08:20;;;;;;;11.90;10.90;;;;;;;23.08;100.00;100193.11;108488;1261;65504;-52
2023/06/21 08:10:48;;;;;;;10.50;9.70;;;;;;;23.08;100.00;100189.75;108566;1264;73503;-53
2023/06/21 08:13:18;;;;;;;10.30;9.60;;;;;;;23.13;100.00;100182.36;108446;1263;60109;-52
2023/06/21 08:15:46;;;;;;;10.50;9.80;;;;;;;23.22;100.00;100182.11;106433;1264;60187;-52
2023/06/21 08:18:13;;;;;;;10.60;10.00;;;;;;;23.29;100.00;100175.86;104687;1266;73062;-49
2023/06/21 08:20:41;;;;;;;10.30;9.70;;;;;;;23.33;100.00;100171.81;104781;1264;66900;-51
2023/06/21 08:23:09;;;;;;;11.30;10.10;;;;;;;23.35;100.00;100164.33;108262;1263;72769;-52
2023/06/21 08:25:36;;;;;;;11.80;11.00;;;;;;;23.37;100.00;100160.48;108370;1264;60528;-52
2023/06/21 08:28:04;;;;;;;13.40;12.50;;;;;;;23.42;100.00;100156.48;108407;1264;59960;-51
2023/06/21 08:30:31;;;;;;;14.50;13.50;;;;;;;23.46;100.00;100148.83;108644;1263;72216;-52
2023/06/21 08:32:59;;;;;;;13.60;12.50;;;;;;;23.48;100.00;100141.48;108342;1264;66301;-53
2023/06/21 08:35:26;;;;;;;12.00;11.30;;;;;;;23.49;100.00;100140.51;105802;1266;73311;-53
2023/06/21 08:37:55;;;;;;;12.10;11.20;;;;;;;23.53;100.00;100139.62;105125;1267;62799;-52
2023/06/21 08:40:30;;;;;;;11.40;10.50;;;;;;;23.57;100.00;100139.52;105557;1269;59679;-50
2023/06/21 08:42:58;;;;;;;10.10;9.50;;;;;;;23.63;100.00;100141.73;104623;1267;73596;-52
2023/06/21 08:45:27;;;;;;;12.30;11.30;;;;;;;23.71;100.00;100140.21;106772;1264;67323;-51
2023/06/21 08:48:03;;;;;;;11.20;10.30;;;;;;;23.76;100.00;100141.01;108263;1264;74680;-52
2023/06/21 08:50:30;;;;;;;11.80;11.10;;;;;;;23.79;100.00;100129.38;104691;1262;59765;-51
2023/06/21 08:52:59;;;;;;;12.10;11.20;;;;;;;23.81;100.00;100129.10;104717;1264;60465;-51
2023/06/21 08:55:27;;;;;;;10.80;10.10;;;;;;;23.86;100.00;100121.89;105050;1267;73065;-52
2023/06/21 08:57:59;;;;;;;9.90;9.30;;;;;;;23.92;100.00;100120.70;104694;1267;65784;-51
2023/06/21 09:00:29;;;;;;;10.90;9.60;;;;;;;24.01;100.00;100109.73;104629;1264;72748;-51
2023/06/21 09:03:32;;;;;;;10.10;9.60;;;;;;;24.10;100.00;100108.65;105930;1263;60102;-52
2023/06/21 09:06:05;;;;;;;10.40;9.60;;;;;;;24.21;100.00;100114.41;105180;1266;59978;-51
2023/06/21 09:08:33;;;;;;;9.40;8.80;;;;;;;24.25;100.00;100107.05;106652;1261;71763;-52
2023/06/21 09:11:01;;;;;;;8.40;7.90;;;;;;;24.26;100.00;100097.56;105103;1268;67509;-51
2023/06/21 09:13:28;;;;;;;9.00;8.40;;;;;;;24.30;100.00;100096.48;104757;1264;72307;-51
2023/06/21 09:15:55;;;;;;;10.40;9.70;;;;;;;24.31;100.00;100090.44;104720;1267;60114;-50
2023/06/21 09:18:23;;;;;;;9.50;8.90;;;;;;;24.33;100.00;100079.45;104678;1269;59616;-51
2023/06/21 09:20:50;;;;;;;9.00;8.40;;;;;;;24.36;100.00;100072.90;104757;1267;73514;-52
2023/06/21 09:23:18;;;;;;;8.50;8.00;;;;;;;24.40;100.00;100069.96;104864;1267;67891;-53
2023/06/21 09:25:48;;;;;;;7.00;6.60;;;;;;;24.47;100.00;100069.77;104878;1264;72653;-52
2023/06/21 09:28:15;;;;;;;6.40;6.10;;;;;;;24.58;100.00;100063.76;105018;1267;60005;-52
2023/06/21 09:30:43;;;;;;;7.70;7.20;;;;;;;24.66;100.00;100064.15;104786;1261;60039;-51
2023/06/21 09:33:10;;;;;;;9.10;8.60;;;;;;;24.74;100.00;100062.45;104816;1264;73015;-51
2023/06/21 09:35:41;;;;;;;9.50;9.00;;;;;;;24.81;100.00;100060.08;108135;1264;67539;-51
2023/06/21 09:38:26;;;;;;;8.90;8.40;;;;;;;24.85;100.00;100060.34;104889;1264;73288;-50
2023/06/21 09:40:54;;;;;;;7.30;6.90;;;;;;;24.86;100.00;100056.77;104931;1266;60037;-51
2023/06/21 09:43:22;;;;;;;8.20;7.30;;;;;;;24.88;100.00;100051.80;104736;1267;59727;-51
2023/06/21 09:46:05;;;;;;;7.80;7.30;;;;;;;24.88;100.00;100043.63;104623;1267;73037;-51
2023/06/21 09:48:37;;;;;;;7.20;6.80;;;;;;;24.89;100.00;100038.50;105636;1260;66179;-50
2023/06/21 09:51:05;;;;;;;9.00;8.30;;;;;;;24.92;100.00;100039.69;104981;1267;72507;-52
2023/06/21 09:53:33;;;;;;;7.70;7.20;;;;;;;24.96;100.00;100035.08;104498;1261;60257;-50
2023/06/21 09:56:00;;;;;;;7.10;6.50;;;;;;;25.02;100.00;100034.00;104695;1266;59762;-52
2023/06/21 09:58:31;;;;;;;5.60;5.20;;;;;;;25.11;100.00;100032.33;104975;1260;73054;-51
2023/06/21 10:00:59;;;;;;;6.60;6.20;;;;;;;25.19;100.00;100030.38;104933;1261;65646;-52
2023/06/21 10:03:28;;;;;;;6.10;5.70;;;;;;;25.24;100.00;100031.91;104962;1260;72454;-51
2023/06/21 10:05:56;;;;;;;6.80;6.40;;;;;;;25.29;100.00;100023.86;104971;1265;60115;-51
2023/06/21 10:08:24;;;;;;;6.20;5.80;;;;;;;25.37;100.00;100018.80;104899;1267;59656;-50
2023/06/21 10:10:52;;;;;;;6.80;6.20;;;;;;;25.44;100.00;100019.29;105014;1260;73024;-51
2023/06/21 10:13:27;;;;;;;6.80;6.30;;;;;;;25.49;100.00;100013.23;104766;1267;66723;-53
2023/06/21 10:15:55;;;;;;;10.20;6.10;;;;;;;25.54;100.00;100010.12;105046;1263;72725;-50
2023/06/21 10:18:23;;;;;;;6.40;5.80;;;;;;;25.61;100.00;100008.70;105509;1262;60135;-53
2023/06/21 10:21:11;;;;;;;5.30;4.90;;;;;;;25.65;100.00;100005.27;105360;1256;59942;-51
2023/06/21 10:23:38;;;;;;;4.70;4.50;;;;;;;25.70;100.00;100003.86;105018;1257;73628;-52
2023/06/21 10:26:06;;;;;;;5.70;5.40;;;;;;;25.73;100.00;100004.06;104953;1264;65530;-52
2023/06/21 10:28:37;;;;;;;5.40;5.00;;;;;;;25.75;100.00;99997.08;108707;1257;72756;-53
2023/06/21 10:31:07;;;;;;;4.50;4.30;;;;;;;25.79;100.00;99991.61;105280;1258;60051;-51
2023/06/21 10:33:35;;;;;;;5.30;3.70;;;;;;;25.82;100.00;99979.39;105122;1258;60328;-52
2023/06/21 10:36:03;;;;;;;5.60;5.20;;;;;;;25.86;100.00;99973.07;105188;1262;71734;-51
2023/06/21 10:38:31;;;;;;;5.00;4.60;;;;;;;25.91;100.00;99968.25;105248;1261;66818;-52
2023/06/21 10:40:59;;;;;;;5.10;4.80;;;;;;;25.98;100.00;99970.66;104850;1258;72739;-52
2023/06/21 10:43:27;;;;;;;4.60;4.30;;;;;;;26.00;100.00;99965.85;104921;1258;60038;-52
2023/06/21 10:45:56;;;;;;;5.20;4.50;;;;;;;25.99;100.00;99960.39;104877;1258;60019;-54
2023/06/21 10:48:24;;;;;;;3.70;3.50;;;;;;;26.01;100.00;99946.76;104968;1257;73021;-53
2023/06/21 10:50:52;;;;;;;2.90;2.60;;;;;;;26.06;100.00;99934.64;105137;1261;65696;-53
2023/06/21 10:53:19;;;;;;;3.10;2.90;;;;;;;26.11;100.00;99910.88;105212;1261;72431;-52
2023/06/21 10:55:49;;;;;;;3.50;3.20;;;;;;;26.18;100.00;99912.04;104767;1265;61115;-51
2023/06/21 10:58:17;;;;;;;3.70;3.50;;;;;;;26.23;100.00;99910.51;108891;1256;60476;-53
2023/06/21 11:00:44;;;;;;;5.70;4.00;;;;;;;26.27;100.00;99911.69;108719;1256;72952;-51
2023/06/21 11:03:15;;;;;;;4.70;3.90;;;;;;;26.30;100.00;99904.92;108704;1259;66757;-53
2023/06/21 11:05:44;;;;;;;3.60;3.40;;;;;;;26.31;100.00;99901.10;108721;1255;72739;-53
2023/06/21 11:08:11;;;;;;;3.80;3.40;;;;;;;26.32;100.00;99900.84;108706;1257;60191;-53
2023/06/21 11:10:43;;;;;;;3.60;3.40;;;;;;;26.33;100.00;99896.29;106491;1263;60044;-52